Time;durP1;ratioP1;P1;durP2;ratioP2;P2;SDS_P1;SDS_P2;PMS_P1;PMS_P2;Temp;Humidity;BMP_temperature;BMP_pressure;BME280_temperature;BME280_humidity;BME280_pressure;Samples;Min_cycle;Max_cycle;Signal;HPM_P1;HPM_P2
2023/03/10 00:05:18;;;;;;;2.40;1.07;;;12.80;99.90;;;;;;5208074;23;20530;-85
2023/03/10 00:08:00;;;;;;;2.83;1.00;;;12.70;99.90;;;;;;4952338;28;20487;-85
2023/03/10 00:10:37;;;;;;;2.77;1.70;;;12.50;99.90;;;;;;4959823;28;20471;-84
2023/03/10 00:16:02;;;;;;;1.97;1.10;;;12.60;99.90;;;;;;4969960;28;20879;-85
2023/03/10 00:19:12;;;;;;;0.70;0.70;;;12.60;99.90;;;;;;4966591;28;20490;-86
2023/03/10 00:21:58;;;;;;;2.83;0.90;;;12.70;99.90;;;;;;4954133;28;20459;-86
2023/03/10 00:24:34;;;;;;;1.83;0.90;;;12.70;99.90;;;;;;4966333;28;20453;-86
2023/03/10 00:27:22;;;;;;;3.07;0.90;;;12.70;99.90;;;;;;4948723;28;20476;-86
2023/03/10 00:30:13;;;;;;;1.03;0.80;;;12.60;99.90;;;;;;4953710;28;20467;-84
2023/03/10 00:32:51;;;;;;;1.30;0.83;;;12.60;99.90;;;;;;4950276;28;20555;-85
2023/03/10 00:35:45;;;;;;;0.67;0.57;;;12.60;99.90;;;;;;4951253;28;20499;-85
2023/03/10 00:38:47;;;;;;;1.90;0.90;;;12.70;99.90;;;;;;4951469;28;20516;-85
2023/03/10 00:41:42;;;;;;;1.90;0.60;;;12.70;99.90;;;;;;4952761;28;20562;-85
2023/03/10 00:44:27;;;;;;;2.30;0.80;;;12.70;99.90;;;;;;4967097;28;21075;-86
2023/03/10 00:47:02;;;;;;;1.17;0.80;;;12.70;99.90;;;;;;4947654;28;20524;-83
2023/03/10 00:49:35;;;;;;;1.20;1.10;;;12.60;99.90;;;;;;4938920;28;20456;-85
2023/03/10 00:52:10;;;;;;;0.77;0.60;;;12.70;99.90;;;;;;4967024;28;20461;-85
2023/03/10 00:54:41;;;;;;;0.70;0.60;;;12.70;99.90;;;;;;4964618;28;20474;-86
2023/03/10 00:57:29;;;;;;;1.67;0.67;;;12.60;99.90;;;;;;4973434;28;20491;-84
2023/03/10 01:00:18;;;;;;;0.60;0.50;;;12.50;99.90;;;;;;4954214;28;20444;-85
2023/03/10 01:03:07;;;;;;;1.13;0.47;;;12.70;99.90;;;;;;4955730;28;20496;-84
2023/03/10 01:06:04;;;;;;;1.13;0.40;;;12.60;99.90;;;;;;4951294;28;20547;-85
2023/03/10 01:08:43;;;;;;;0.40;0.40;;;12.60;99.90;;;;;;4951779;28;20521;-85
2023/03/10 01:11:43;;;;;;;1.27;1.17;;;12.60;99.90;;;;;;4950122;28;20571;-85
2023/03/10 01:14:25;;;;;;;0.50;0.50;;;12.60;99.90;;;;;;4948220;28;20452;-85
2023/03/10 01:19:24;;;;;;;0.50;0.50;;;12.40;99.90;;;;;;4939359;28;20496;-86
2023/03/10 01:22:05;;;;;;;0.40;0.40;;;12.40;99.90;;;;;;4929969;29;20560;-86
2023/03/10 01:25:01;;;;;;;0.40;0.40;;;12.50;99.90;;;;;;4943350;29;20513;-86
2023/03/10 01:27:37;;;;;;;0.60;0.60;;;12.60;99.90;;;;;;4928116;29;21064;-85
2023/03/10 01:30:20;;;;;;;1.13;0.53;;;12.60;99.90;;;;;;4907147;29;20465;-83
2023/03/10 01:33:04;;;;;;;1.83;0.50;;;12.60;99.90;;;;;;4948759;29;20484;-84
2023/03/10 01:35:41;;;;;;;0.40;0.40;;;12.70;99.90;;;;;;4930373;29;20500;-84
2023/03/10 01:38:19;;;;;;;0.40;0.40;;;12.80;99.90;;;;;;4945801;29;20577;-84
2023/03/10 01:40:59;;;;;;;0.73;0.50;;;12.80;99.90;;;;;;4956946;28;20457;-85
2023/03/10 01:43:36;;;;;;;0.83;0.50;;;12.60;99.90;;;;;;4949617;29;20477;-84
2023/03/10 01:46:26;;;;;;;0.70;0.70;;;12.70;99.90;;;;;;4941492;29;20460;-82
2023/03/10 01:49:05;;;;;;;0.40;0.40;;;12.60;99.90;;;;;;4920629;29;20512;-86
2023/03/10 01:51:34;;;;;;;1.17;0.50;;;12.70;99.90;;;;;;4940830;29;20461;-83
2023/03/10 01:54:13;;;;;;;0.57;0.40;;;12.70;99.90;;;;;;4942435;29;20461;-86
2023/03/10 01:57:05;;;;;;;0.80;0.60;;;12.60;99.90;;;;;;4943037;29;20485;-85
2023/03/10 02:00:11;;;;;;;0.50;0.40;;;12.60;99.90;;;;;;4932762;29;20493;-86
2023/03/10 02:02:56;;;;;;;0.70;0.60;;;12.70;99.90;;;;;;4945225;29;20461;-84
2023/03/10 02:05:39;;;;;;;0.80;0.47;;;12.70;99.90;;;;;;4940509;29;21012;-84
2023/03/10 02:08:17;;;;;;;0.40;0.40;;;12.70;99.90;;;;;;4929088;29;20536;-83
2023/03/10 02:10:47;;;;;;;1.17;0.60;;;12.90;99.90;;;;;;4942856;29;20517;-85
2023/03/10 02:13:22;;;;;;;0.60;0.60;;;12.90;99.90;;;;;;4950520;28;20451;-84
2023/03/10 02:16:00;;;;;;;1.03;0.60;;;13.00;99.90;;;;;;4925775;29;20564;-83
2023/03/10 02:18:30;;;;;;;1.23;0.63;;;12.90;99.90;;;;;;4959505;28;20492;-84
2023/03/10 02:21:22;;;;;;;0.77;0.50;;;12.90;99.90;;;;;;4952300;28;20470;-85
2023/03/10 02:24:04;;;;;;;0.60;0.60;;;13.00;99.90;;;;;;4973821;28;20473;-84
2023/03/10 02:26:58;;;;;;;0.47;0.40;;;12.80;99.90;;;;;;4959234;28;20460;-85
2023/03/10 02:29:39;;;;;;;0.50;0.50;;;12.80;99.90;;;;;;4977795;28;20447;-84
2023/03/10 02:32:28;;;;;;;0.70;0.47;;;12.80;99.90;;;;;;4966102;28;20464;-85
2023/03/10 02:35:01;;;;;;;0.70;0.70;;;12.90;99.90;;;;;;4952673;28;20475;-84
2023/03/10 02:37:37;;;;;;;0.90;0.60;;;12.80;99.90;;;;;;5011741;23;20544;-86
2023/03/10 02:40:30;;;;;;;1.90;0.60;;;12.80;99.90;;;;;;4938422;28;20475;-86
2023/03/10 02:43:17;;;;;;;1.67;0.60;;;12.60;99.90;;;;;;4973890;28;20463;-84
2023/03/10 02:45:47;;;;;;;1.30;0.93;;;12.40;99.90;;;;;;4973392;28;20546;-83
2023/03/10 02:48:24;;;;;;;2.87;0.80;;;12.30;99.90;;;;;;4972126;28;20483;-84
2023/03/10 02:50:55;;;;;;;1.73;0.80;;;12.40;99.90;;;;;;4952661;28;20442;-84
2023/03/10 02:53:25;;;;;;;2.37;1.20;;;12.30;99.90;;;;;;4964994;28;20509;-84
2023/03/10 02:55:53;;;;;;;3.20;1.07;;;12.20;99.90;;;;;;4941664;28;20511;-85
2023/03/10 02:58:32;;;;;;;2.23;1.03;;;12.20;99.90;;;;;;4944964;28;20612;-84
2023/03/10 03:00:59;;;;;;;2.20;0.80;;;12.10;99.90;;;;;;4938137;28;20537;-85
2023/03/10 03:03:29;;;;;;;2.17;0.93;;;11.90;99.90;;;;;;4947340;28;20464;-84
2023/03/10 03:05:57;;;;;;;6.07;1.83;;;11.90;99.90;;;;;;4956179;28;21006;-86
2023/03/10 03:08:27;;;;;;;3.20;1.53;;;11.90;99.90;;;;;;4940397;28;20519;-85
2023/03/10 03:10:59;;;;;;;2.77;0.90;;;11.80;99.90;;;;;;4941749;28;20460;-83
2023/03/10 03:13:36;;;;;;;4.90;1.20;;;11.80;99.90;;;;;;4944514;28;20465;-86
2023/03/10 03:16:08;;;;;;;6.73;1.33;;;11.80;99.90;;;;;;4958181;28;20488;-87
2023/03/10 03:18:38;;;;;;;2.03;1.10;;;11.80;99.90;;;;;;4966239;28;20517;-85
2023/03/10 03:21:18;;;;;;;1.90;1.00;;;12.40;99.90;;;;;;4961566;28;20436;-85
2023/03/10 03:23:49;;;;;;;2.60;1.13;;;12.70;99.90;;;;;;4962880;28;20448;-84
2023/03/10 03:26:24;;;;;;;4.57;1.40;;;12.70;99.90;;;;;;4950384;28;20597;-85
2023/03/10 03:28:55;;;;;;;2.50;0.90;;;12.50;99.90;;;;;;4960969;28;20471;-85
2023/03/10 03:31:25;;;;;;;2.93;1.33;;;12.40;99.90;;;;;;4952144;28;21044;-83
2023/03/10 03:33:56;;;;;;;1.87;1.10;;;12.60;99.90;;;;;;4956341;28;20452;-84
2023/03/10 03:36:26;;;;;;;3.33;1.20;;;12.60;99.90;;;;;;4950535;28;20471;-86
2023/03/10 03:38:57;;;;;;;1.63;1.03;;;12.20;99.90;;;;;;4942999;28;20492;-84
2023/03/10 03:41:35;;;;;;;2.03;1.10;;;12.40;99.90;;;;;;4945605;28;20558;-86
2023/03/10 03:44:06;;;;;;;2.20;0.90;;;12.50;99.90;;;;;;4956987;28;20455;-85
2023/03/10 03:46:33;;;;;;;3.97;1.20;;;12.50;99.90;;;;;;4939807;28;20461;-82
2023/03/10 03:49:09;;;;;;;2.50;0.87;;;12.50;99.90;;;;;;4946132;28;20478;-83
2023/03/10 03:51:38;;;;;;;7.83;1.57;;;12.50;99.90;;;;;;4955322;28;20464;-85
2023/03/10 03:54:10;;;;;;;2.93;1.20;;;12.20;99.90;;;;;;4942533;28;20518;-84
2023/03/10 03:56:39;;;;;;;6.77;1.83;;;11.90;99.90;;;;;;4927317;28;20583;-85
2023/03/10 03:59:08;;;;;;;2.60;1.17;;;12.00;99.90;;;;;;4942174;28;20720;-83
2023/03/10 04:01:37;;;;;;;3.90;0.90;;;11.90;99.90;;;;;;4940727;28;20460;-85
2023/03/10 04:04:20;;;;;;;3.27;1.00;;;12.00;99.90;;;;;;4939715;28;20497;-85
2023/03/10 04:06:55;;;;;;;2.67;1.10;;;12.20;99.90;;;;;;4940063;28;20482;-84
2023/03/10 04:09:32;;;;;;;3.83;0.80;;;12.20;99.90;;;;;;4942891;28;21022;-85
2023/03/10 04:12:05;;;;;;;2.00;0.80;;;12.20;99.90;;;;;;4952546;28;21208;-84
2023/03/10 04:14:33;;;;;;;2.40;0.83;;;12.40;99.90;;;;;;4943208;28;20527;-86
2023/03/10 04:17:17;;;;;;;4.43;1.00;;;12.40;99.90;;;;;;4940959;28;20472;-86
2023/03/10 04:19:47;;;;;;;2.73;1.00;;;12.40;99.90;;;;;;4946176;28;20502;-86
2023/03/10 04:22:39;;;;;;;5.30;1.30;;;12.40;99.90;;;;;;4959859;28;20457;-85
2023/03/10 04:25:08;;;;;;;1.80;1.00;;;12.40;99.90;;;;;;4958850;28;20470;-85
2023/03/10 04:27:44;;;;;;;6.00;1.20;;;12.30;99.90;;;;;;4978760;28;20539;-84
2023/03/10 04:30:14;;;;;;;4.10;2.77;;;12.30;99.90;;;;;;4966020;28;20470;-85
2023/03/10 04:32:43;;;;;;;3.53;1.53;;;12.20;99.90;;;;;;4964679;28;20528;-85
2023/03/10 04:35:14;;;;;;;1.67;0.87;;;12.10;99.90;;;;;;4961259;28;21071;-85
2023/03/10 04:37:43;;;;;;;2.20;0.97;;;12.10;99.90;;;;;;4943881;28;20485;-85
2023/03/10 04:40:12;;;;;;;2.50;1.10;;;12.00;99.90;;;;;;4940967;28;21087;-85
2023/03/10 04:42:42;;;;;;;2.30;1.20;;;11.90;99.90;;;;;;4951819;28;20830;-86
2023/03/10 04:45:10;;;;;;;3.67;1.40;;;11.90;99.90;;;;;;4960281;28;20523;-84
2023/03/10 04:47:38;;;;;;;4.27;1.10;;;12.00;99.90;;;;;;4938562;28;20473;-83
2023/03/10 04:50:08;;;;;;;2.00;1.20;;;11.90;99.90;;;;;;4941565;28;20552;-85
2023/03/10 04:52:35;;;;;;;2.23;1.20;;;11.90;99.90;;;;;;4942897;28;20453;-84
2023/03/10 04:55:03;;;;;;;2.63;1.33;;;12.00;99.90;;;;;;4943483;28;20469;-84
2023/03/10 04:57:44;;;;;;;2.77;1.80;;;12.00;99.90;;;;;;5175973;23;20543;-83
2023/03/10 05:00:14;;;;;;;3.80;1.30;;;12.00;99.90;;;;;;4948173;28;20574;-83
2023/03/10 05:02:41;;;;;;;2.20;1.17;;;12.00;99.90;;;;;;4943324;28;20502;-84
2023/03/10 05:05:09;;;;;;;4.13;1.53;;;12.10;99.90;;;;;;4962147;28;20530;-83
2023/03/10 05:07:42;;;;;;;6.27;2.10;;;12.00;99.90;;;;;;4952253;29;20475;-84
2023/03/10 05:10:12;;;;;;;3.93;2.10;;;12.00;99.90;;;;;;4938932;28;20519;-85
2023/03/10 05:12:41;;;;;;;2.40;1.30;;;11.90;99.90;;;;;;4968696;28;20464;-84
2023/03/10 05:15:08;;;;;;;2.70;1.33;;;12.10;99.90;;;;;;4965703;28;20460;-84
2023/03/10 05:17:38;;;;;;;5.10;2.60;;;12.20;99.90;;;;;;4955663;28;20543;-85
2023/03/10 05:20:08;;;;;;;4.40;1.97;;;12.20;99.90;;;;;;4924612;28;21735;-86
2023/03/10 05:22:37;;;;;;;5.60;1.40;;;12.20;99.90;;;;;;4937496;28;20824;-83
2023/03/10 05:25:05;;;;;;;5.53;1.63;;;12.20;99.90;;;;;;4939850;28;20470;-83
2023/03/10 05:27:33;;;;;;;7.07;2.07;;;12.20;99.90;;;;;;4923778;28;20529;-83
2023/03/10 05:30:00;;;;;;;6.70;1.50;;;12.20;99.90;;;;;;4941457;28;20461;-84
2023/03/10 05:32:28;;;;;;;3.20;1.50;;;12.30;99.90;;;;;;4938845;28;20472;-85
2023/03/10 05:34:59;;;;;;;2.80;1.40;;;12.20;99.90;;;;;;4926453;28;20488;-85
2023/03/10 05:37:29;;;;;;;2.50;1.20;;;12.30;99.90;;;;;;4940463;28;20485;-83
2023/03/10 05:39:58;;;;;;;2.33;1.43;;;12.20;99.90;;;;;;4913512;28;20553;-81
2023/03/10 05:42:25;;;;;;;3.77;1.70;;;12.30;99.90;;;;;;4914257;28;20819;-83
2023/03/10 05:44:51;;;;;;;2.97;1.50;;;12.20;99.90;;;;;;4913768;28;20470;-82
2023/03/10 05:47:18;;;;;;;5.40;1.83;;;12.10;99.90;;;;;;4935959;28;21039;-84
2023/03/10 05:49:49;;;;;;;3.90;1.60;;;11.90;99.90;;;;;;4944441;28;20480;-84
2023/03/10 05:52:16;;;;;;;7.07;1.67;;;12.10;99.90;;;;;;4932982;28;20542;-84
2023/03/10 05:54:43;;;;;;;3.13;1.70;;;12.20;99.90;;;;;;4939909;28;20533;-83
2023/03/10 05:57:12;;;;;;;9.10;3.73;;;12.20;99.90;;;;;;4926612;28;20477;-83
2023/03/10 05:59:44;;;;;;;5.17;1.93;;;12.20;99.90;;;;;;4942188;28;20513;-85
2023/03/10 06:02:11;;;;;;;4.13;1.50;;;12.10;99.90;;;;;;4925436;28;20560;-83
2023/03/10 06:04:39;;;;;;;3.33;1.60;;;12.00;99.90;;;;;;4934429;28;20576;-83
2023/03/10 06:07:10;;;;;;;3.33;1.20;;;12.10;99.90;;;;;;4921340;28;20483;-83
2023/03/10 06:09:41;;;;;;;3.93;1.50;;;12.10;99.90;;;;;;4936103;28;20469;-83
2023/03/10 06:12:08;;;;;;;6.63;1.57;;;12.00;99.90;;;;;;4925039;28;20496;-86
2023/03/10 06:14:37;;;;;;;5.60;1.63;;;11.90;99.90;;;;;;4917685;28;20503;-84
2023/03/10 06:17:06;;;;;;;5.23;1.77;;;11.90;99.90;;;;;;4934325;28;20485;-85
2023/03/10 06:19:33;;;;;;;4.33;1.40;;;11.90;99.90;;;;;;4935991;28;20496;-85
2023/03/10 06:22:02;;;;;;;3.20;1.53;;;11.90;99.90;;;;;;4940846;28;20449;-86
2023/03/10 06:24:29;;;;;;;2.53;1.00;;;11.90;99.90;;;;;;4917737;28;20949;-84
2023/03/10 06:32:16;;;;;;;2.70;1.40;;;11.80;99.90;;;;;;4944210;28;20523;-84
2023/03/10 06:34:49;;;;;;;4.90;1.60;;;11.90;99.90;;;;;;4961193;28;20466;-84
2023/03/10 06:37:20;;;;;;;2.03;1.07;;;12.00;99.90;;;;;;4931180;29;20507;-86
2023/03/10 06:39:48;;;;;;;1.60;0.90;;;11.90;99.90;;;;;;4914204;29;20837;-85
2023/03/10 06:42:17;;;;;;;2.40;1.10;;;11.90;99.90;;;;;;4914298;29;20455;-86
2023/03/10 06:44:53;;;;;;;1.80;1.00;;;11.90;99.90;;;;;;4944565;29;20455;-85
2023/03/10 06:47:25;;;;;;;3.07;1.10;;;11.90;99.90;;;;;;4928578;29;20534;-84
2023/03/10 06:49:56;;;;;;;4.30;1.07;;;11.90;99.90;;;;;;4926870;29;20461;-84
2023/03/10 06:52:28;;;;;;;2.60;1.03;;;11.90;99.90;;;;;;4927893;29;20454;-84
2023/03/10 06:54:58;;;;;;;3.00;1.10;;;11.80;99.90;;;;;;4931763;29;20458;-83
2023/03/10 06:57:27;;;;;;;5.83;1.37;;;11.80;99.90;;;;;;4945272;28;20651;-84
2023/03/10 06:59:54;;;;;;;2.67;1.40;;;11.80;99.90;;;;;;4924538;29;20485;-84
2023/03/10 07:02:21;;;;;;;4.23;1.43;;;11.90;99.90;;;;;;4903493;29;20458;-84
2023/03/10 07:04:56;;;;;;;3.00;1.10;;;11.80;99.90;;;;;;4882321;29;20454;-84
2023/03/10 07:07:24;;;;;;;1.07;0.97;;;11.90;99.90;;;;;;4875433;29;20507;-84
2023/03/10 07:09:51;;;;;;;2.40;1.20;;;12.00;99.90;;;;;;4871679;29;20463;-86
2023/03/10 07:12:17;;;;;;;3.03;1.20;;;12.00;99.90;;;;;;4869615;29;20471;-83
2023/03/10 07:14:45;;;;;;;2.70;1.20;;;12.00;99.90;;;;;;4870650;29;20463;-85
2023/03/10 07:17:15;;;;;;;2.57;1.00;;;12.00;99.90;;;;;;4869995;29;20600;-86
2023/03/10 07:19:43;;;;;;;2.07;1.07;;;12.00;99.90;;;;;;4873662;29;20581;-85
2023/03/10 07:22:12;;;;;;;3.07;1.43;;;12.00;99.90;;;;;;4877650;29;20454;-84
2023/03/10 07:24:39;;;;;;;3.23;1.30;;;12.00;99.90;;;;;;4880089;29;20509;-83
2023/03/10 07:27:11;;;;;;;3.47;1.80;;;12.00;99.90;;;;;;4883159;29;20614;-85
2023/03/10 07:29:44;;;;;;;1.73;1.10;;;12.00;99.90;;;;;;4891684;29;20984;-83
2023/03/10 07:32:14;;;;;;;0.80;0.80;;;11.90;99.90;;;;;;4893729;28;21307;-82
2023/03/10 07:34:41;;;;;;;2.17;1.50;;;12.00;99.90;;;;;;4877441;29;20531;-84
2023/03/10 07:37:10;;;;;;;3.73;1.33;;;11.90;99.90;;;;;;4882700;29;20498;-85
2023/03/10 07:39:43;;;;;;;1.93;1.03;;;11.90;99.90;;;;;;4897205;29;20486;-84
2023/03/10 07:42:15;;;;;;;3.40;1.50;;;12.00;99.90;;;;;;4894893;29;20538;-84
2023/03/10 07:44:45;;;;;;;2.23;1.50;;;12.00;99.90;;;;;;4893560;29;20542;-84
2023/03/10 07:47:18;;;;;;;3.30;1.03;;;12.20;99.90;;;;;;4896152;29;20467;-83
2023/03/10 07:49:45;;;;;;;3.57;1.50;;;12.20;99.90;;;;;;4896157;29;21596;-84
2023/03/10 07:52:35;;;;;;;3.17;1.43;;;12.20;99.90;;;;;;4893477;29;20466;-82
2023/03/10 07:55:15;;;;;;;3.60;1.07;;;12.10;99.90;;;;;;4888339;29;20469;-83
2023/03/10 07:57:55;;;;;;;2.07;1.40;;;12.20;99.90;;;;;;4873931;29;20486;-85
2023/03/10 08:00:29;;;;;;;2.90;1.50;;;12.30;99.90;;;;;;4886735;29;20639;-84
2023/03/10 08:03:02;;;;;;;5.27;1.30;;;12.20;99.90;;;;;;4871661;29;21632;-86
2023/03/10 08:05:30;;;;;;;3.40;1.43;;;12.20;99.90;;;;;;4874812;29;20462;-81
2023/03/10 08:08:01;;;;;;;3.87;1.43;;;12.30;99.90;;;;;;4870816;29;20489;-82
2023/03/10 08:10:29;;;;;;;2.83;1.40;;;12.30;99.90;;;;;;4879511;29;21244;-84
2023/03/10 08:12:56;;;;;;;3.47;1.50;;;12.40;99.90;;;;;;4875528;29;21300;-83
2023/03/10 08:15:34;;;;;;;3.37;1.60;;;12.50;99.90;;;;;;4894997;29;20467;-84
2023/03/10 08:18:04;;;;;;;3.60;1.47;;;12.90;99.90;;;;;;4922785;29;20471;-83
2023/03/10 08:20:31;;;;;;;2.93;1.37;;;13.40;99.90;;;;;;4922148;29;20490;-85
2023/03/10 08:23:01;;;;;;;4.47;1.77;;;13.50;99.90;;;;;;4929321;29;20581;-84
2023/03/10 08:25:39;;;;;;;3.70;1.53;;;13.40;99.90;;;;;;4923828;28;20451;-83
2023/03/10 08:28:07;;;;;;;3.90;1.30;;;13.50;99.90;;;;;;4908517;29;20506;-84
2023/03/10 08:30:43;;;;;;;2.37;1.60;;;13.40;99.90;;;;;;4906572;29;20561;-84
2023/03/10 08:33:32;;;;;;;2.00;1.30;;;13.50;99.90;;;;;;4907409;29;20455;-85
2023/03/10 08:36:19;;;;;;;4.50;1.40;;;13.60;99.90;;;;;;4918046;29;20550;-83
2023/03/10 08:38:54;;;;;;;2.30;0.60;;;13.70;99.90;;;;;;4923875;29;20497;-84
2023/03/10 08:41:27;;;;;;;4.73;1.63;;;13.70;99.90;;;;;;4918061;29;20475;-86
2023/03/10 08:44:37;;;;;;;2.30;1.13;;;13.80;99.90;;;;;;4909182;29;20462;-85
2023/03/10 08:47:32;;;;;;;2.93;1.20;;;14.10;99.90;;;;;;4907620;29;20473;-85
2023/03/10 08:53:24;;;;;;;;;;;;;;;;;;;;;
2023/03/10 08:56:09;;;;;;;2.83;1.10;;;14.20;97.30;;;;;;4914139;29;20442;-83
2023/03/10 08:58:55;;;;;;;6.20;1.63;;;14.10;97.10;;;;;;4932040;29;20474;-84
2023/03/10 09:01:37;;;;;;;4.17;1.13;;;14.20;97.40;;;;;;4929117;29;20486;-84
2023/03/10 09:04:11;;;;;;;2.37;1.00;;;14.20;97.10;;;;;;4918865;29;21842;-85
2023/03/10 09:06:45;;;;;;;2.70;1.30;;;14.30;96.80;;;;;;4921943;28;20465;-84
2023/03/10 09:09:20;;;;;;;2.43;1.10;;;14.10;97.00;;;;;;4929215;29;20430;-84
2023/03/10 09:11:56;;;;;;;2.87;1.60;;;14.10;97.00;;;;;;4929313;29;20463;-84
2023/03/10 09:14:29;;;;;;;2.00;0.77;;;14.20;96.60;;;;;;4931458;28;20486;-84
2023/03/10 09:17:09;;;;;;;4.23;1.20;;;14.30;96.40;;;;;;4928758;28;20458;-83
2023/03/10 09:20:05;;;;;;;2.30;0.90;;;14.40;96.00;;;;;;4931333;28;20562;-84
2023/03/10 09:22:42;;;;;;;3.30;1.27;;;14.40;96.60;;;;;;4945857;28;20475;-83
2023/03/10 09:25:16;;;;;;;1.63;1.10;;;14.40;95.60;;;;;;4929760;28;20578;-83
2023/03/10 09:27:50;;;;;;;3.03;1.23;;;14.00;96.30;;;;;;4928079;28;20507;-85
2023/03/10 09:30:41;;;;;;;;;;;;;;;;;;;;;
2023/03/10 09:33:22;;;;;;;6.10;1.50;;;14.10;97.10;;;;;;4926585;29;20541;-84
2023/03/10 09:36:07;;;;;;;3.17;1.50;;;14.00;96.80;;;;;;4915324;29;21195;-83
2023/03/10 09:38:43;;;;;;;2.40;1.17;;;13.90;96.30;;;;;;4901088;29;20490;-83
2023/03/10 09:41:37;;;;;;;3.13;1.33;;;14.60;96.30;;;;;;4903465;29;20510;-83
2023/03/10 09:44:16;;;;;;;3.20;1.30;;;14.60;94.80;;;;;;4918833;29;20490;-84
2023/03/10 09:46:52;;;;;;;2.73;1.27;;;14.90;93.00;;;;;;4903314;29;20465;-84
2023/03/10 09:49:39;;;;;;;1.70;1.20;;;14.50;93.90;;;;;;4909837;29;20454;-84
2023/03/10 09:52:41;;;;;;;4.93;1.20;;;14.30;94.50;;;;;;4896702;29;20446;-84
2023/03/10 09:55:27;;;;;;;2.10;1.10;;;14.10;94.80;;;;;;4917395;29;20486;-83
2023/03/10 09:58:01;;;;;;;3.67;1.43;;;14.40;95.10;;;;;;4909862;29;20522;-84
2023/03/10 10:00:38;;;;;;;10.57;1.43;;;14.80;94.00;;;;;;4907293;29;20486;-85
2023/03/10 10:03:30;;;;;;;2.23;0.97;;;15.10;93.10;;;;;;4904031;29;20485;-86
2023/03/10 10:06:24;;;;;;;2.03;0.97;;;15.30;91.90;;;;;;4902218;29;20470;-85
2023/03/10 10:09:40;;;;;;;2.93;1.00;;;15.30;91.40;;;;;;4900544;29;20514;-86
2023/03/10 10:12:42;;;;;;;2.27;1.10;;;14.70;91.90;;;;;;4853930;29;20464;-86
2023/03/10 10:15:31;;;;;;;3.60;1.10;;;14.90;92.10;;;;;;4902184;29;20462;-84
2023/03/10 10:19:22;;;;;;;4.00;1.27;;;14.60;92.30;;;;;;4831806;29;20500;-84
2023/03/10 10:22:11;;;;;;;5.10;0.97;;;14.60;93.20;;;;;;4778890;29;20885;-85
2023/03/10 10:28:38;;;;;;;4.13;1.73;;;14.80;91.40;;;;;;4807192;29;20493;-85
2023/03/10 10:31:28;;;;;;;1.87;0.97;;;14.80;91.00;;;;;;4830576;29;20466;-86
2023/03/10 10:34:30;;;;;;;1.80;0.80;;;14.80;91.20;;;;;;4822038;29;20464;-84
2023/03/10 10:37:54;;;;;;;4.43;1.00;;;15.20;90.20;;;;;;4908733;29;20974;-85
2023/03/10 10:41:31;;;;;;;2.23;1.00;;;14.70;91.20;;;;;;4904735;29;20485;-86
2023/03/10 10:44:32;;;;;;;2.33;1.10;;;14.40;92.10;;;;;;4856965;29;20460;-85
2023/03/10 10:47:42;;;;;;;;;;;;;;;;;;;;;
2023/03/10 10:50:53;;;;;;;1.33;1.03;;;14.60;91.30;;;;;;4859765;29;20453;-86
2023/03/10 10:53:41;;;;;;;1.73;0.90;;;14.40;91.60;;;;;;4903924;29;20457;-86
2023/03/10 10:56:46;;;;;;;1.10;0.90;;;14.30;91.90;;;;;;4910643;29;20481;-82
2023/03/10 10:59:45;;;;;;;1.00;0.77;;;14.40;91.60;;;;;;4928681;28;20462;-83
2023/03/10 11:03:45;;;;;;;0.80;0.70;;;14.00;92.10;;;;;;4911989;28;20556;-85
2023/03/10 11:06:28;;;;;;;1.17;0.73;;;13.90;92.70;;;;;;4909334;29;20473;-86
2023/03/10 11:09:45;;;;;;;1.93;0.80;;;14.00;92.70;;;;;;4964238;23;20540;-85
2023/03/10 11:12:43;;;;;;;1.23;0.70;;;14.10;92.60;;;;;;4866655;29;20468;-83
2023/03/10 11:15:47;;;;;;;1.10;0.57;;;13.90;93.00;;;;;;4880058;28;20457;-83
2023/03/10 11:18:48;;;;;;;0.70;0.57;;;14.00;94.30;;;;;;4957658;28;20860;-83
2023/03/10 11:21:38;;;;;;;1.03;0.90;;;13.90;95.20;;;;;;4940539;29;21228;-82
2023/03/10 11:24:20;;;;;;;0.60;0.50;;;13.90;95.70;;;;;;4942257;28;20492;-83
2023/03/10 11:27:39;;;;;;;2.40;0.53;;;13.70;96.30;;;;;;4945614;28;20445;-84
2023/03/10 11:30:46;;;;;;;1.17;0.60;;;13.60;95.80;;;;;;4929235;29;20460;-84
2023/03/10 11:34:04;;;;;;;1.37;0.60;;;13.60;96.00;;;;;;4951599;28;21166;-84
2023/03/10 11:37:23;;;;;;;1.63;0.60;;;13.60;96.80;;;;;;4937378;28;20456;-86
2023/03/10 11:40:47;;;;;;;3.17;1.17;;;13.60;97.60;;;;;;4965964;28;20436;-84
2023/03/10 11:44:10;;;;;;;3.17;1.00;;;13.70;97.80;;;;;;4952785;28;20448;-83
2023/03/10 11:47:19;;;;;;;1.20;0.80;;;13.40;98.50;;;;;;4947196;28;20465;-84
2023/03/10 11:50:09;;;;;;;2.17;0.83;;;13.50;99.30;;;;;;4939619;28;20457;-84
2023/03/10 11:53:03;;;;;;;3.10;0.93;;;13.40;99.90;;;;;;4958716;28;20449;-84
2023/03/10 11:56:06;;;;;;;4.43;1.07;;;13.30;99.90;;;;;;4959965;28;20460;-83
2023/03/10 11:59:32;;;;;;;2.40;0.90;;;13.10;99.90;;;;;;4955342;28;20480;-86
2023/03/10 12:02:47;;;;;;;2.30;0.90;;;13.00;99.90;;;;;;4956739;28;20536;-84
2023/03/10 12:06:18;;;;;;;2.33;1.07;;;12.80;99.90;;;;;;4941439;29;20940;-85
2023/03/10 12:09:42;;;;;;;2.40;1.37;;;12.70;99.90;;;;;;4940595;28;20509;-84
2023/03/10 12:13:12;;;;;;;1.23;0.77;;;12.50;99.90;;;;;;4947337;28;20469;-84
2023/03/10 12:17:03;;;;;;;1.40;0.83;;;12.70;99.90;;;;;;4944997;28;20685;-85
2023/03/10 12:20:19;;;;;;;1.40;0.90;;;12.60;99.90;;;;;;4958909;28;20444;-86
2023/03/10 12:27:03;;;;;;;2.50;1.00;;;12.80;99.90;;;;;;4947073;29;20528;-85
2023/03/10 12:31:05;;;;;;;0.70;0.50;;;12.70;99.90;;;;;;4953268;28;20996;-87
2023/03/10 12:38:06;;;;;;;1.97;0.97;;;12.70;99.90;;;;;;4821926;29;20518;-84
2023/03/10 12:41:10;;;;;;;0.67;0.60;;;12.70;99.90;;;;;;4888642;29;20596;-83
2023/03/10 13:22:03;;;;;;;1.63;1.13;;;12.60;99.90;;;;;;4854889;29;20485;-85
2023/03/10 13:25:14;;;;;;;2.77;2.20;;;12.60;99.90;;;;;;4853139;29;20492;-84
2023/03/10 13:28:22;;;;;;;1.40;0.97;;;12.60;99.90;;;;;;4850809;29;20485;-85
2023/03/10 13:35:50;;;;;;;1.53;0.70;;;12.40;99.90;;;;;;4853161;29;20516;-85
2023/03/10 13:39:06;;;;;;;1.77;1.00;;;12.50;99.90;;;;;;4843688;29;20601;-86
2023/03/10 13:46:29;;;;;;;3.47;1.57;;;12.50;99.90;;;;;;4850912;29;20533;-85
2023/03/10 13:50:02;;;;;;;;;;;;;;;;;;;;;
2023/03/10 13:53:14;;;;;;;;;;;;;;;;;;;;;
2023/03/10 13:56:40;;;;;;;0.80;0.80;;;12.40;99.90;;;;;;4842064;29;20688;-86
2023/03/10 13:59:22;;;;;;;0.97;0.80;;;12.00;99.90;;;;;;4835679;29;20549;-85
2023/03/10 14:02:32;;;;;;;1.20;0.70;;;11.70;99.90;;;;;;4841150;29;20577;-86
2023/03/10 14:06:02;;;;;;;0.90;0.70;;;11.50;99.90;;;;;;4830265;29;20473;-85
2023/03/10 14:09:49;;;;;;;1.20;1.17;;;11.40;99.90;;;;;;4847230;29;20496;-84
2023/03/10 14:12:42;;;;;;;1.43;0.93;;;11.40;99.90;;;;;;4848011;29;20485;-84
2023/03/10 14:15:29;;;;;;;0.87;0.70;;;11.30;99.90;;;;;;4854689;29;20560;-85
2023/03/10 14:18:19;;;;;;;0.60;0.60;;;11.30;99.90;;;;;;4857151;29;20584;-86
2023/03/10 14:20:56;;;;;;;1.47;0.50;;;11.30;99.90;;;;;;4851597;29;20515;-85
2023/03/10 14:24:30;;;;;;;1.10;0.90;;;11.30;99.90;;;;;;4899781;29;21028;-86
2023/03/10 14:27:15;;;;;;;0.50;0.47;;;11.30;99.90;;;;;;4912569;28;20546;-86
2023/03/10 14:34:14;;;;;;;;;;;;;;;;;;;;;
2023/03/10 14:41:17;;;;;;;1.40;0.80;;;11.20;99.90;;;;;;5646345;23;21811;-85
2023/03/10 14:47:33;;;;;;;2.83;0.50;;;11.30;99.90;;;;;;5020186;23;20560;-85
2023/03/10 14:50:39;;;;;;;0.60;0.60;;;11.10;99.90;;;;;;4919157;29;20526;-84
2023/03/10 14:54:02;;;;;;;1.23;0.60;;;11.00;99.90;;;;;;4942147;29;20509;-85
2023/03/10 14:56:57;;;;;;;1.00;0.50;;;11.00;99.90;;;;;;4937283;29;20479;-86
2023/03/10 15:07:24;;;;;;;;;;;;;;;;;;;;;
2023/03/10 15:10:41;;;;;;;1.43;0.87;;;;;;;;;;4933290;29;20534;-84
2023/03/10 15:13:53;;;;;;;1.70;1.10;;;10.70;99.90;;;;;;4930222;29;20583;-85
2023/03/10 15:17:21;;;;;;;2.57;1.20;;;10.60;99.90;;;;;;4937605;29;20454;-84
2023/03/10 15:20:15;;;;;;;8.00;1.00;;;10.60;99.90;;;;;;4877561;29;20472;-86
2023/03/10 15:34:24;;;;;;;0.90;0.90;;;10.40;99.90;;;;;;4880603;29;20490;-86
2023/03/10 15:37:34;;;;;;;1.03;0.70;;;10.30;99.90;;;;;;4890283;29;21158;-87
2023/03/10 15:40:42;;;;;;;0.70;0.70;;;10.40;99.90;;;;;;4887703;29;20449;-84
2023/03/10 15:47:41;;;;;;;0.67;0.67;;;10.30;99.90;;;;;;4847582;29;20459;-84
2023/03/10 15:51:21;;;;;;;0.93;0.93;;;10.20;99.90;;;;;;4834019;29;20453;-84
2023/03/10 15:54:14;;;;;;;0.63;0.60;;;10.20;99.90;;;;;;4845079;29;20478;-86
2023/03/10 15:57:33;;;;;;;0.70;0.63;;;10.10;99.90;;;;;;4865917;29;20497;-86
2023/03/10 16:03:47;;;;;;;1.00;0.80;;;10.00;99.90;;;;;;4871312;29;20534;-87
2023/03/10 16:06:38;;;;;;;0.73;0.60;;;10.00;99.90;;;;;;4873073;29;20463;-86
2023/03/10 16:09:46;;;;;;;0.90;0.60;;;10.00;99.90;;;;;;4875863;29;20479;-85
2023/03/10 16:22:21;;;;;;;0.60;0.60;;;9.80;99.90;;;;;;5141835;23;20496;-88
2023/03/10 16:25:55;;;;;;;;;;;;;;;;;;;;;
2023/03/10 16:35:30;;;;;;;1.00;0.70;;;9.60;99.90;;;;;;4950993;28;20452;-86
2023/03/10 16:38:32;;;;;;;0.50;0.50;;;9.60;99.90;;;;;;4920514;29;20475;-86